Tipton Airport Fort Meade(Odenton) US
ICAO: KFME
IATA: FME
Category: Medium
Scheduled Services: No

Elevation: 150 ft
TransAlt. 18000 ft.

Airport Communications:
POTOMAC APP DEP:119.7
AWOS 3:123.925
CTAF/UNICOM:123.05

KFME Zoom In..

Runways:

(A) RW 10 length 3000 ft width 75 ft
---- / hdg 104

(B) RW 28 length 3000 ft width 75 ft
---- / hdg 284

Location; KFME
Day. 19 / Time. 03.27 Zulu
* Altimeter: 30.02
* Temperature: 17° c. 62.6°f.
* Wind from: 000° Speed 00 kn.
Dewpoint: 16° c.
Visibility: 10 Statute Miles.
Clouds: Clear (automated report).

KFME 190327Z AUTO 00000KT 10SM CLR 17/16 A3002 RMK AO1


Wind - Calm.

 
 
jpsmedia.com for Web Design worldairports.se 2018   terms of use